This is the latest recevied weather packets stored in our database for station/object KA9CBS. If no packets are shown the sender has not sent any weather packets the latest 10 day(s).
| Time | Temp. | Humidity | Pressure | Rain* | Wind** | Luminosity | Snow |
|---|---|---|---|---|---|---|---|
| 1788024247 | 31.11° C | 52% | 1022.4 hPa | 0 mm | - | 302 W/m² | - |
| 1788023943 | 31.11° C | 53% | 1022.6 hPa | 0 mm | - | 609 W/m² | - |
| 1788023637 | 31.67° C | 53% | 1022.5 hPa | 0 mm | - | 727 W/m² | - |
| 1788023333 | 30.56° C | 57% | 1022.7 hPa | 0 mm | - | 693 W/m² | - |
| 1788023028 | 29.44° C | 59% | 1022.7 hPa | 0 mm | - | 665 W/m² | - |
| 1788022726 | 29.44° C | 58% | 1022.8 hPa | 0 mm | - | 445 W/m² | - |
| 1788022424 | 30° C | 57% | 1022.8 hPa | 0 mm | - | 678 W/m² | - |
| 1788022119 | 30.56° C | 56% | 1022.8 hPa | 0 mm | - | 694 W/m² | - |
| 1788021818 | 31.11° C | 56% | 1022.9 hPa | 0 mm | - | 697 W/m² | - |
| 1788021511 | 30° C | 58% | 1022.8 hPa | 0 mm | - | 652 W/m² | - |
| 1788021205 | 30° C | 58% | 1022.9 hPa | 0 mm | - | 629 W/m² | - |
| 1788020900 | 30° C | 60% | 1023 hPa | 0 mm | - | 632 W/m² | - |
| 1788020589 | 30° C | 59% | 1023 hPa | 0 mm | - | 636 W/m² | - |
| 1788020286 | 29.44° C | 59% | 1023.1 hPa | 0 mm | - | 593 W/m² | - |
| 1788019981 | 29.44° C | 59% | 1023 hPa | 0 mm | - | 575 W/m² | - |
| 1788019681 | 29.44° C | 61% | 1023 hPa | 0 mm | - | 604 W/m² | - |
| 1788019380 | 28.89° C | 61% | 1023 hPa | 0 mm | - | 576 W/m² | - |
| 1788019079 | 28.89° C | 62% | 1022.9 hPa | 0 mm | - | 391 W/m² | - |
| 1788018773 | 29.44° C | 61% | 1022.9 hPa | 0 mm | - | 409 W/m² | - |
| 1788018468 | 29.44° C | 59% | 1023 hPa | 0 mm | - | 467 W/m² | - |
| 1788018167 | 28.89° C | 62% | 1023 hPa | 0 mm | - | 497 W/m² | - |
| 1788017864 | 28.89° C | 62% | 1022.7 hPa | 0 mm | - | 489 W/m² | - |
| 1788017560 | 28.89° C | 63% | 1023.1 hPa | 0 mm | - | 489 W/m² | - |
| 1788017256 | 28.33° C | 62% | 1023 hPa | 0 mm | - | 444 W/m² | - |
| 1788016952 | 27.78° C | 64% | 1022.8 hPa | 0 mm | - | 437 W/m² | - |
* Rain latest hour (hover to see other rain measurements)
** Current wind speed in m/s (hover to see current wind gust speed)